sensor_id;sensor_type;location;lat;lon;timestamp;P1;durP1;ratioP1;P2;durP2;ratioP2
45728;SDS011;31439;53.512;10.206;2023-03-23T00:01:07;9.30;;;4.68;;
45728;SDS011;31439;53.512;10.206;2023-03-23T00:03:44;6.82;;;4.45;;
45728;SDS011;31439;53.512;10.206;2023-03-23T00:06:10;9.27;;;5.03;;
45728;SDS011;31439;53.512;10.206;2023-03-23T00:08:42;7.65;;;5.00;;
45728;SDS011;31439;53.512;10.206;2023-03-23T00:11:12;9.70;;;5.78;;
45728;SDS011;31439;53.512;10.206;2023-03-23T00:13:41;10.27;;;5.72;;
45728;SDS011;31439;53.512;10.206;2023-03-23T00:16:07;8.38;;;5.82;;
45728;SDS011;31439;53.512;10.206;2023-03-23T00:18:49;8.02;;;6.50;;
45728;SDS011;31439;53.512;10.206;2023-03-23T00:21:19;10.10;;;6.50;;
45728;SDS011;31439;53.512;10.206;2023-03-23T00:23:50;11.13;;;7.25;;
45728;SDS011;31439;53.512;10.206;2023-03-23T00:26:16;10.75;;;7.50;;
45728;SDS011;31439;53.512;10.206;2023-03-23T00:28:43;10.15;;;7.22;;
45728;SDS011;31439;53.512;10.206;2023-03-23T00:31:11;11.30;;;7.40;;
45728;SDS011;31439;53.512;10.206;2023-03-23T00:33:38;12.93;;;7.78;;
45728;SDS011;31439;53.512;10.206;2023-03-23T00:36:06;10.82;;;8.48;;
45728;SDS011;31439;53.512;10.206;2023-03-23T00:38:33;12.60;;;8.25;;
45728;SDS011;31439;53.512;10.206;2023-03-23T00:41:00;12.40;;;9.30;;
45728;SDS011;31439;53.512;10.206;2023-03-23T00:43:29;14.13;;;9.23;;
45728;SDS011;31439;53.512;10.206;2023-03-23T00:45:56;14.18;;;8.80;;
45728;SDS011;31439;53.512;10.206;2023-03-23T00:48:23;13.07;;;9.90;;
45728;SDS011;31439;53.512;10.206;2023-03-23T00:50:50;12.68;;;9.68;;
45728;SDS011;31439;53.512;10.206;2023-03-23T00:53:17;13.73;;;9.88;;
45728;SDS011;31439;53.512;10.206;2023-03-23T00:55:44;13.55;;;9.68;;
45728;SDS011;31439;53.512;10.206;2023-03-23T00:58:11;12.52;;;10.07;;
45728;SDS011;31439;53.512;10.206;2023-03-23T01:00:37;11.93;;;9.77;;
45728;SDS011;31439;53.512;10.206;2023-03-23T01:03:05;13.68;;;10.45;;
45728;SDS011;31439;53.512;10.206;2023-03-23T01:05:36;14.38;;;10.70;;
45728;SDS011;31439;53.512;10.206;2023-03-23T01:08:05;12.85;;;10.43;;
45728;SDS011;31439;53.512;10.206;2023-03-23T01:10:31;16.13;;;10.48;;
45728;SDS011;31439;53.512;10.206;2023-03-23T01:13:00;16.52;;;11.23;;
45728;SDS011;31439;53.512;10.206;2023-03-23T01:15:26;15.93;;;10.35;;
45728;SDS011;31439;53.512;10.206;2023-03-23T01:17:53;15.25;;;11.15;;
45728;SDS011;31439;53.512;10.206;2023-03-23T01:20:20;15.20;;;10.82;;
45728;SDS011;31439;53.512;10.206;2023-03-23T01:22:46;17.42;;;10.57;;
45728;SDS011;31439;53.512;10.206;2023-03-23T01:25:12;14.48;;;10.85;;
45728;SDS011;31439;53.512;10.206;2023-03-23T01:27:38;14.57;;;10.05;;
45728;SDS011;31439;53.512;10.206;2023-03-23T01:30:05;13.95;;;9.75;;
45728;SDS011;31439;53.512;10.206;2023-03-23T01:32:32;14.70;;;9.95;;
45728;SDS011;31439;53.512;10.206;2023-03-23T01:34:58;14.57;;;9.75;;
45728;SDS011;31439;53.512;10.206;2023-03-23T01:37:24;13.60;;;9.80;;
45728;SDS011;31439;53.512;10.206;2023-03-23T01:39:51;15.32;;;10.05;;
45728;SDS011;31439;53.512;10.206;2023-03-23T01:42:18;13.65;;;9.88;;
45728;SDS011;31439;53.512;10.206;2023-03-23T01:50:15;15.15;;;10.10;;
45728;SDS011;31439;53.512;10.206;2023-03-23T01:52:42;12.70;;;9.85;;
45728;SDS011;31439;53.512;10.206;2023-03-23T01:55:08;15.20;;;9.65;;
45728;SDS011;31439;53.512;10.206;2023-03-23T01:57:34;12.82;;;10.00;;
45728;SDS011;31439;53.512;10.206;2023-03-23T02:00:02;14.10;;;9.57;;
45728;SDS011;31439;53.512;10.206;2023-03-23T02:02:35;13.80;;;9.40;;
45728;SDS011;31439;53.512;10.206;2023-03-23T02:05:04;14.38;;;9.40;;
45728;SDS011;31439;53.512;10.206;2023-03-23T02:07:34;14.50;;;10.50;;
45728;SDS011;31439;53.512;10.206;2023-03-23T02:10:00;15.27;;;9.93;;
45728;SDS011;31439;53.512;10.206;2023-03-23T02:12:25;13.98;;;9.63;;
45728;SDS011;31439;53.512;10.206;2023-03-23T02:14:51;12.02;;;9.45;;
45728;SDS011;31439;53.512;10.206;2023-03-23T02:17:31;13.88;;;9.57;;
45728;SDS011;31439;53.512;10.206;2023-03-23T02:38:57;11.40;;;9.60;;
45728;SDS011;31439;53.512;10.206;2023-03-23T02:41:31;15.80;;;10.23;;
45728;SDS011;31439;53.512;10.206;2023-03-23T02:44:05;13.02;;;9.73;;
45728;SDS011;31439;53.512;10.206;2023-03-23T02:46:32;12.55;;;9.95;;
45728;SDS011;31439;53.512;10.206;2023-03-23T02:49:00;12.82;;;9.32;;
45728;SDS011;31439;53.512;10.206;2023-03-23T02:51:28;12.38;;;9.57;;
45728;SDS011;31439;53.512;10.206;2023-03-23T02:53:55;14.73;;;10.15;;
45728;SDS011;31439;53.512;10.206;2023-03-23T02:56:22;15.82;;;10.05;;
45728;SDS011;31439;53.512;10.206;2023-03-23T02:58:50;15.07;;;10.57;;
45728;SDS011;31439;53.512;10.206;2023-03-23T03:09:18;15.90;;;9.52;;
45728;SDS011;31439;53.512;10.206;2023-03-23T03:12:09;12.75;;;9.13;;
45728;SDS011;31439;53.512;10.206;2023-03-23T03:14:57;12.85;;;9.18;;
45728;SDS011;31439;53.512;10.206;2023-03-23T03:17:30;14.52;;;9.85;;
45728;SDS011;31439;53.512;10.206;2023-03-23T03:19:57;13.13;;;9.88;;
45728;SDS011;31439;53.512;10.206;2023-03-23T03:22:35;12.65;;;9.65;;
45728;SDS011;31439;53.512;10.206;2023-03-23T03:25:07;12.25;;;9.40;;
45728;SDS011;31439;53.512;10.206;2023-03-23T03:27:34;13.27;;;10.45;;
45728;SDS011;31439;53.512;10.206;2023-03-23T03:30:00;16.58;;;9.48;;
45728;SDS011;31439;53.512;10.206;2023-03-23T03:32:35;10.63;;;8.80;;
45728;SDS011;31439;53.512;10.206;2023-03-23T03:35:04;12.57;;;9.63;;
45728;SDS011;31439;53.512;10.206;2023-03-23T03:37:37;14.77;;;10.05;;
45728;SDS011;31439;53.512;10.206;2023-03-23T03:40:09;11.30;;;9.23;;
45728;SDS011;31439;53.512;10.206;2023-03-23T03:42:38;11.98;;;9.57;;
45728;SDS011;31439;53.512;10.206;2023-03-23T03:45:04;15.15;;;9.10;;
45728;SDS011;31439;53.512;10.206;2023-03-23T03:47:32;12.50;;;9.75;;
45728;SDS011;31439;53.512;10.206;2023-03-23T03:49:58;14.43;;;10.30;;
45728;SDS011;31439;53.512;10.206;2023-03-23T03:52:23;13.70;;;9.57;;
45728;SDS011;31439;53.512;10.206;2023-03-23T03:54:49;13.27;;;9.98;;
45728;SDS011;31439;53.512;10.206;2023-03-23T03:57:15;13.90;;;9.95;;
45728;SDS011;31439;53.512;10.206;2023-03-23T03:59:42;13.18;;;9.65;;
45728;SDS011;31439;53.512;10.206;2023-03-23T04:02:08;13.50;;;10.15;;
45728;SDS011;31439;53.512;10.206;2023-03-23T04:04:38;11.63;;;9.73;;
45728;SDS011;31439;53.512;10.206;2023-03-23T04:07:05;13.10;;;9.80;;
45728;SDS011;31439;53.512;10.206;2023-03-23T04:09:30;13.60;;;9.90;;
45728;SDS011;31439;53.512;10.206;2023-03-23T04:11:56;12.73;;;9.70;;
45728;SDS011;31439;53.512;10.206;2023-03-23T04:14:22;12.63;;;9.88;;
45728;SDS011;31439;53.512;10.206;2023-03-23T04:16:47;12.52;;;9.63;;
45728;SDS011;31439;53.512;10.206;2023-03-23T04:19:21;15.45;;;10.60;;
45728;SDS011;31439;53.512;10.206;2023-03-23T04:21:50;13.38;;;9.82;;
45728;SDS011;31439;53.512;10.206;2023-03-23T04:24:16;13.55;;;10.45;;
45728;SDS011;31439;53.512;10.206;2023-03-23T04:26:46;11.93;;;9.75;;
45728;SDS011;31439;53.512;10.206;2023-03-23T04:29:12;12.15;;;10.25;;
45728;SDS011;31439;53.512;10.206;2023-03-23T04:31:38;14.43;;;10.00;;
45728;SDS011;31439;53.512;10.206;2023-03-23T04:34:04;12.43;;;10.23;;
45728;SDS011;31439;53.512;10.206;2023-03-23T04:36:30;13.20;;;10.07;;
45728;SDS011;31439;53.512;10.206;2023-03-23T04:38:58;14.15;;;10.18;;
45728;SDS011;31439;53.512;10.206;2023-03-23T04:41:24;13.45;;;9.90;;
45728;SDS011;31439;53.512;10.206;2023-03-23T04:43:50;14.82;;;10.35;;
45728;SDS011;31439;53.512;10.206;2023-03-23T04:46:18;12.18;;;10.00;;
45728;SDS011;31439;53.512;10.206;2023-03-23T04:48:46;12.35;;;9.57;;
45728;SDS011;31439;53.512;10.206;2023-03-23T04:51:12;12.98;;;10.10;;
45728;SDS011;31439;53.512;10.206;2023-03-23T04:53:37;13.82;;;10.32;;
45728;SDS011;31439;53.512;10.206;2023-03-23T04:56:03;15.30;;;10.90;;
45728;SDS011;31439;53.512;10.206;2023-03-23T04:58:29;13.30;;;10.35;;
45728;SDS011;31439;53.512;10.206;2023-03-23T05:00:58;12.55;;;10.50;;
45728;SDS011;31439;53.512;10.206;2023-03-23T05:03:29;11.98;;;9.95;;
45728;SDS011;31439;53.512;10.206;2023-03-23T05:05:54;13.30;;;10.23;;
45728;SDS011;31439;53.512;10.206;2023-03-23T05:08:21;11.68;;;9.90;;
45728;SDS011;31439;53.512;10.206;2023-03-23T05:10:50;14.35;;;9.90;;
45728;SDS011;31439;53.512;10.206;2023-03-23T05:13:20;14.55;;;9.75;;
45728;SDS011;31439;53.512;10.206;2023-03-23T05:15:46;12.25;;;10.02;;
45728;SDS011;31439;53.512;10.206;2023-03-23T05:18:12;10.73;;;9.27;;
45728;SDS011;31439;53.512;10.206;2023-03-23T05:20:38;11.98;;;9.45;;
45728;SDS011;31439;53.512;10.206;2023-03-23T05:23:04;12.73;;;9.35;;
45728;SDS011;31439;53.512;10.206;2023-03-23T05:25:30;12.65;;;8.13;;
45728;SDS011;31439;53.512;10.206;2023-03-23T05:27:57;11.10;;;8.63;;
45728;SDS011;31439;53.512;10.206;2023-03-23T05:30:24;11.65;;;8.77;;
45728;SDS011;31439;53.512;10.206;2023-03-23T05:32:50;12.48;;;8.43;;
45728;SDS011;31439;53.512;10.206;2023-03-23T05:35:16;13.18;;;7.95;;
45728;SDS011;31439;53.512;10.206;2023-03-23T05:37:43;12.85;;;7.90;;
45728;SDS011;31439;53.512;10.206;2023-03-23T05:40:10;11.68;;;8.10;;
45728;SDS011;31439;53.512;10.206;2023-03-23T05:42:37;10.77;;;7.35;;
45728;SDS011;31439;53.512;10.206;2023-03-23T05:45:06;10.07;;;7.00;;
45728;SDS011;31439;53.512;10.206;2023-03-23T05:47:33;9.57;;;6.70;;
45728;SDS011;31439;53.512;10.206;2023-03-23T05:50:00;9.02;;;6.47;;
45728;SDS011;31439;53.512;10.206;2023-03-23T05:52:26;9.90;;;6.75;;
45728;SDS011;31439;53.512;10.206;2023-03-23T05:54:52;9.77;;;6.55;;
45728;SDS011;31439;53.512;10.206;2023-03-23T05:57:19;11.82;;;6.32;;
45728;SDS011;31439;53.512;10.206;2023-03-23T05:59:48;8.98;;;5.90;;
45728;SDS011;31439;53.512;10.206;2023-03-23T06:02:14;9.48;;;6.20;;
45728;SDS011;31439;53.512;10.206;2023-03-23T06:04:40;9.43;;;5.82;;
45728;SDS011;31439;53.512;10.206;2023-03-23T06:07:07;8.98;;;6.03;;
45728;SDS011;31439;53.512;10.206;2023-03-23T06:09:37;7.32;;;5.45;;
45728;SDS011;31439;53.512;10.206;2023-03-23T06:12:03;7.85;;;5.60;;
45728;SDS011;31439;53.512;10.206;2023-03-23T06:14:29;7.50;;;5.35;;
45728;SDS011;31439;53.512;10.206;2023-03-23T06:16:56;7.40;;;5.53;;
45728;SDS011;31439;53.512;10.206;2023-03-23T06:19:22;6.53;;;5.20;;
45728;SDS011;31439;53.512;10.206;2023-03-23T06:21:48;9.77;;;4.90;;
45728;SDS011;31439;53.512;10.206;2023-03-23T06:24:14;8.02;;;4.53;;
45728;SDS011;31439;53.512;10.206;2023-03-23T06:26:40;6.70;;;4.85;;
45728;SDS011;31439;53.512;10.206;2023-03-23T06:29:09;7.93;;;4.47;;
45728;SDS011;31439;53.512;10.206;2023-03-23T06:31:43;7.35;;;3.90;;
45728;SDS011;31439;53.512;10.206;2023-03-23T06:34:11;7.30;;;4.43;;
45728;SDS011;31439;53.512;10.206;2023-03-23T06:36:37;6.90;;;4.32;;
45728;SDS011;31439;53.512;10.206;2023-03-23T06:39:03;8.07;;;4.40;;
45728;SDS011;31439;53.512;10.206;2023-03-23T06:41:32;7.20;;;4.30;;
45728;SDS011;31439;53.512;10.206;2023-03-23T06:43:58;6.03;;;3.90;;
45728;SDS011;31439;53.512;10.206;2023-03-23T06:46:25;7.35;;;4.32;;
45728;SDS011;31439;53.512;10.206;2023-03-23T06:48:51;6.82;;;3.53;;
45728;SDS011;31439;53.512;10.206;2023-03-23T06:51:18;6.43;;;4.20;;
45728;SDS011;31439;53.512;10.206;2023-03-23T06:53:43;9.15;;;4.40;;
45728;SDS011;31439;53.512;10.206;2023-03-23T06:56:09;6.20;;;4.05;;
45728;SDS011;31439;53.512;10.206;2023-03-23T06:58:37;5.28;;;3.20;;
45728;SDS011;31439;53.512;10.206;2023-03-23T07:01:03;6.97;;;3.88;;
45728;SDS011;31439;53.512;10.206;2023-03-23T07:03:29;6.50;;;3.80;;
45728;SDS011;31439;53.512;10.206;2023-03-23T07:05:56;4.93;;;3.30;;
45728;SDS011;31439;53.512;10.206;2023-03-23T07:08:22;5.05;;;3.30;;
45728;SDS011;31439;53.512;10.206;2023-03-23T07:10:50;5.70;;;3.40;;
45728;SDS011;31439;53.512;10.206;2023-03-23T07:13:17;7.32;;;3.88;;
45728;SDS011;31439;53.512;10.206;2023-03-23T07:15:44;5.32;;;3.20;;
45728;SDS011;31439;53.512;10.206;2023-03-23T07:18:10;5.43;;;3.30;;
45728;SDS011;31439;53.512;10.206;2023-03-23T07:20:36;5.32;;;2.95;;
45728;SDS011;31439;53.512;10.206;2023-03-23T07:23:02;5.53;;;3.15;;
45728;SDS011;31439;53.512;10.206;2023-03-23T07:25:30;5.75;;;3.53;;
45728;SDS011;31439;53.512;10.206;2023-03-23T07:27:57;5.47;;;3.00;;
45728;SDS011;31439;53.512;10.206;2023-03-23T07:30:27;5.55;;;3.00;;
45728;SDS011;31439;53.512;10.206;2023-03-23T07:32:57;4.72;;;2.97;;
45728;SDS011;31439;53.512;10.206;2023-03-23T07:35:23;4.38;;;3.00;;
45728;SDS011;31439;53.512;10.206;2023-03-23T07:37:50;6.60;;;3.20;;
45728;SDS011;31439;53.512;10.206;2023-03-23T07:40:16;5.47;;;3.00;;
45728;SDS011;31439;53.512;10.206;2023-03-23T07:42:43;4.60;;;3.20;;
45728;SDS011;31439;53.512;10.206;2023-03-23T07:45:11;6.88;;;3.03;;
45728;SDS011;31439;53.512;10.206;2023-03-23T07:47:38;5.13;;;3.17;;
45728;SDS011;31439;53.512;10.206;2023-03-23T07:50:05;7.55;;;3.13;;
45728;SDS011;31439;53.512;10.206;2023-03-23T07:52:31;5.10;;;3.03;;
45728;SDS011;31439;53.512;10.206;2023-03-23T07:54:58;4.70;;;2.83;;
45728;SDS011;31439;53.512;10.206;2023-03-23T07:57:26;3.65;;;2.83;;
45728;SDS011;31439;53.512;10.206;2023-03-23T07:59:52;5.07;;;3.20;;
45728;SDS011;31439;53.512;10.206;2023-03-23T08:02:17;6.75;;;3.38;;
45728;SDS011;31439;53.512;10.206;2023-03-23T08:04:43;6.35;;;3.50;;
45728;SDS011;31439;53.512;10.206;2023-03-23T08:07:10;4.30;;;3.50;;
45728;SDS011;31439;53.512;10.206;2023-03-23T08:09:40;7.03;;;3.83;;
45728;SDS011;31439;53.512;10.206;2023-03-23T08:12:06;5.72;;;3.60;;
45728;SDS011;31439;53.512;10.206;2023-03-23T08:14:31;7.35;;;3.40;;
45728;SDS011;31439;53.512;10.206;2023-03-23T08:16:57;6.53;;;3.50;;
45728;SDS011;31439;53.512;10.206;2023-03-23T08:19:23;4.80;;;3.60;;
45728;SDS011;31439;53.512;10.206;2023-03-23T08:21:49;5.72;;;3.67;;
45728;SDS011;31439;53.512;10.206;2023-03-23T08:24:16;6.32;;;3.47;;
45728;SDS011;31439;53.512;10.206;2023-03-23T08:26:41;6.88;;;4.03;;
45728;SDS011;31439;53.512;10.206;2023-03-23T08:29:07;5.70;;;3.83;;
45728;SDS011;31439;53.512;10.206;2023-03-23T08:31:33;4.90;;;4.13;;
45728;SDS011;31439;53.512;10.206;2023-03-23T08:34:00;8.05;;;4.65;;
45728;SDS011;31439;53.512;10.206;2023-03-23T08:36:26;6.93;;;4.70;;
45728;SDS011;31439;53.512;10.206;2023-03-23T08:38:53;7.40;;;4.53;;
45728;SDS011;31439;53.512;10.206;2023-03-23T08:41:19;7.03;;;4.47;;
45728;SDS011;31439;53.512;10.206;2023-03-23T08:43:45;5.63;;;4.07;;
45728;SDS011;31439;53.512;10.206;2023-03-23T08:46:11;5.10;;;4.00;;
45728;SDS011;31439;53.512;10.206;2023-03-23T08:48:37;5.25;;;3.90;;
45728;SDS011;31439;53.512;10.206;2023-03-23T08:51:04;8.35;;;4.05;;
45728;SDS011;31439;53.512;10.206;2023-03-23T08:53:31;5.60;;;3.90;;
45728;SDS011;31439;53.512;10.206;2023-03-23T08:56:06;6.75;;;3.72;;
45728;SDS011;31439;53.512;10.206;2023-03-23T08:58:34;5.03;;;2.30;;
45728;SDS011;31439;53.512;10.206;2023-03-23T09:01:01;6.68;;;2.60;;
45728;SDS011;31439;53.512;10.206;2023-03-23T09:03:28;7.43;;;2.50;;
45728;SDS011;31439;53.512;10.206;2023-03-23T09:05:57;6.40;;;2.15;;
45728;SDS011;31439;53.512;10.206;2023-03-23T09:08:27;6.78;;;1.98;;
45728;SDS011;31439;53.512;10.206;2023-03-23T09:10:55;4.13;;;2.00;;
45728;SDS011;31439;53.512;10.206;2023-03-23T09:13:23;6.93;;;2.05;;
45728;SDS011;31439;53.512;10.206;2023-03-23T09:15:49;3.80;;;1.42;;
45728;SDS011;31439;53.512;10.206;2023-03-23T09:18:15;5.45;;;1.50;;
45728;SDS011;31439;53.512;10.206;2023-03-23T09:20:42;4.07;;;1.30;;
45728;SDS011;31439;53.512;10.206;2023-03-23T09:23:08;4.97;;;1.60;;
45728;SDS011;31439;53.512;10.206;2023-03-23T09:25:34;4.22;;;1.30;;
45728;SDS011;31439;53.512;10.206;2023-03-23T09:28:00;4.80;;;1.48;;
45728;SDS011;31439;53.512;10.206;2023-03-23T09:30:27;5.75;;;1.50;;
45728;SDS011;31439;53.512;10.206;2023-03-23T09:32:55;6.32;;;1.65;;
45728;SDS011;31439;53.512;10.206;2023-03-23T09:35:22;5.47;;;1.60;;
45728;SDS011;31439;53.512;10.206;2023-03-23T09:37:50;4.35;;;1.40;;
45728;SDS011;31439;53.512;10.206;2023-03-23T09:40:19;5.72;;;1.52;;
45728;SDS011;31439;53.512;10.206;2023-03-23T09:45:51;9.00;;;1.52;;
45728;SDS011;31439;53.512;10.206;2023-03-23T09:54:02;8.35;;;2.35;;
45728;SDS011;31439;53.512;10.206;2023-03-23T09:56:42;8.10;;;1.83;;
45728;SDS011;31439;53.512;10.206;2023-03-23T10:01:43;11.27;;;2.33;;
45728;SDS011;31439;53.512;10.206;2023-03-23T10:06:58;11.80;;;2.25;;
45728;SDS011;31439;53.512;10.206;2023-03-23T10:09:31;10.93;;;2.17;;
45728;SDS011;31439;53.512;10.206;2023-03-23T10:17:54;9.40;;;2.38;;
45728;SDS011;31439;53.512;10.206;2023-03-23T10:25:52;8.27;;;2.17;;
45728;SDS011;31439;53.512;10.206;2023-03-23T10:28:38;12.27;;;2.70;;
45728;SDS011;31439;53.512;10.206;2023-03-23T10:31:09;10.05;;;2.53;;
45728;SDS011;31439;53.512;10.206;2023-03-23T10:36:10;10.57;;;2.47;;
45728;SDS011;31439;53.512;10.206;2023-03-23T10:38:39;9.75;;;2.25;;
45728;SDS011;31439;53.512;10.206;2023-03-23T10:41:11;9.00;;;2.05;;
45728;SDS011;31439;53.512;10.206;2023-03-23T10:43:39;9.80;;;2.28;;
45728;SDS011;31439;53.512;10.206;2023-03-23T10:46:13;7.88;;;2.03;;
45728;SDS011;31439;53.512;10.206;2023-03-23T10:48:47;8.38;;;1.90;;
45728;SDS011;31439;53.512;10.206;2023-03-23T10:51:16;7.05;;;2.22;;
45728;SDS011;31439;53.512;10.206;2023-03-23T10:53:45;11.57;;;2.38;;
45728;SDS011;31439;53.512;10.206;2023-03-23T10:58:53;9.38;;;2.00;;
45728;SDS011;31439;53.512;10.206;2023-03-23T11:01:27;9.80;;;2.30;;
45728;SDS011;31439;53.512;10.206;2023-03-23T11:03:55;13.50;;;2.53;;
45728;SDS011;31439;53.512;10.206;2023-03-23T11:06:26;12.68;;;2.50;;
45728;SDS011;31439;53.512;10.206;2023-03-23T11:08:57;13.77;;;2.33;;
45728;SDS011;31439;53.512;10.206;2023-03-23T11:11:30;11.60;;;2.47;;
45728;SDS011;31439;53.512;10.206;2023-03-23T11:14:01;9.30;;;2.30;;
45728;SDS011;31439;53.512;10.206;2023-03-23T11:16:42;13.00;;;2.95;;
45728;SDS011;31439;53.512;10.206;2023-03-23T11:19:13;12.00;;;2.63;;
45728;SDS011;31439;53.512;10.206;2023-03-23T11:21:40;12.02;;;2.58;;
45728;SDS011;31439;53.512;10.206;2023-03-23T11:24:13;11.85;;;2.60;;
45728;SDS011;31439;53.512;10.206;2023-03-23T11:26:38;8.63;;;2.33;;
45728;SDS011;31439;53.512;10.206;2023-03-23T11:29:12;10.32;;;2.65;;
45728;SDS011;31439;53.512;10.206;2023-03-23T11:31:39;10.43;;;2.58;;
45728;SDS011;31439;53.512;10.206;2023-03-23T11:34:14;14.13;;;3.00;;
45728;SDS011;31439;53.512;10.206;2023-03-23T11:39:24;14.15;;;3.17;;
45728;SDS011;31439;53.512;10.206;2023-03-23T11:41:54;13.95;;;2.90;;
45728;SDS011;31439;53.512;10.206;2023-03-23T11:44:22;12.18;;;2.97;;
45728;SDS011;31439;53.512;10.206;2023-03-23T11:52:25;12.98;;;3.60;;
45728;SDS011;31439;53.512;10.206;2023-03-23T11:55:00;17.08;;;3.28;;
45728;SDS011;31439;53.512;10.206;2023-03-23T11:57:34;17.02;;;2.90;;
45728;SDS011;31439;53.512;10.206;2023-03-23T12:00:00;10.82;;;2.70;;
45728;SDS011;31439;53.512;10.206;2023-03-23T12:16:30;10.63;;;2.65;;
45728;SDS011;31439;53.512;10.206;2023-03-23T12:30:25;9.35;;;2.55;;
45728;SDS011;31439;53.512;10.206;2023-03-23T12:36:30;7.85;;;2.50;;
45728;SDS011;31439;53.512;10.206;2023-03-23T12:41:52;10.88;;;2.40;;
45728;SDS011;31439;53.512;10.206;2023-03-23T12:45:15;8.98;;;2.72;;
45728;SDS011;31439;53.512;10.206;2023-03-23T12:47:52;10.23;;;2.63;;
45728;SDS011;31439;53.512;10.206;2023-03-23T12:50:23;8.80;;;2.92;;
45728;SDS011;31439;53.512;10.206;2023-03-23T12:58:17;9.95;;;2.63;;
45728;SDS011;31439;53.512;10.206;2023-03-23T13:00:59;10.55;;;3.17;;
45728;SDS011;31439;53.512;10.206;2023-03-23T13:03:48;10.98;;;2.70;;
45728;SDS011;31439;53.512;10.206;2023-03-23T13:06:45;9.23;;;2.78;;
45728;SDS011;31439;53.512;10.206;2023-03-23T13:11:56;9.55;;;2.72;;
45728;SDS011;31439;53.512;10.206;2023-03-23T13:17:04;9.68;;;2.47;;
45728;SDS011;31439;53.512;10.206;2023-03-23T13:23:11;9.63;;;3.22;;
45728;SDS011;31439;53.512;10.206;2023-03-23T13:28:33;11.07;;;3.30;;
45728;SDS011;31439;53.512;10.206;2023-03-23T13:31:14;8.50;;;2.70;;
45728;SDS011;31439;53.512;10.206;2023-03-23T13:33:57;9.82;;;2.70;;
45728;SDS011;31439;53.512;10.206;2023-03-23T13:36:35;7.55;;;2.95;;
45728;SDS011;31439;53.512;10.206;2023-03-23T13:39:05;8.55;;;2.78;;
45728;SDS011;31439;53.512;10.206;2023-03-23T13:41:45;6.53;;;2.67;;
45728;SDS011;31439;53.512;10.206;2023-03-23T13:44:23;8.98;;;2.53;;
45728;SDS011;31439;53.512;10.206;2023-03-23T13:50:01;5.57;;;2.28;;
45728;SDS011;31439;53.512;10.206;2023-03-23T14:10:36;7.47;;;2.10;;
45728;SDS011;31439;53.512;10.206;2023-03-23T14:13:18;7.00;;;2.05;;
45728;SDS011;31439;53.512;10.206;2023-03-23T14:15:58;6.43;;;2.03;;
45728;SDS011;31439;53.512;10.206;2023-03-23T14:18:25;4.82;;;1.63;;
45728;SDS011;31439;53.512;10.206;2023-03-23T14:20:55;5.80;;;1.80;;
45728;SDS011;31439;53.512;10.206;2023-03-23T14:23:22;4.72;;;1.50;;
45728;SDS011;31439;53.512;10.206;2023-03-23T14:26:21;5.45;;;1.83;;
45728;SDS011;31439;53.512;10.206;2023-03-23T14:28:45;5.90;;;1.75;;
45728;SDS011;31439;53.512;10.206;2023-03-23T14:31:17;4.95;;;1.20;;
45728;SDS011;31439;53.512;10.206;2023-03-23T14:33:51;3.83;;;1.42;;
45728;SDS011;31439;53.512;10.206;2023-03-23T14:36:37;5.47;;;1.50;;
45728;SDS011;31439;53.512;10.206;2023-03-23T14:41:36;5.40;;;1.50;;
45728;SDS011;31439;53.512;10.206;2023-03-23T14:44:02;5.85;;;1.50;;
45728;SDS011;31439;53.512;10.206;2023-03-23T14:46:31;3.25;;;1.25;;
45728;SDS011;31439;53.512;10.206;2023-03-23T14:48:59;5.25;;;1.60;;
45728;SDS011;31439;53.512;10.206;2023-03-23T14:51:26;4.40;;;1.40;;
45728;SDS011;31439;53.512;10.206;2023-03-23T14:53:52;5.95;;;1.60;;
45728;SDS011;31439;53.512;10.206;2023-03-23T14:56:19;5.20;;;1.42;;
45728;SDS011;31439;53.512;10.206;2023-03-23T14:58:51;5.75;;;1.38;;
45728;SDS011;31439;53.512;10.206;2023-03-23T15:01:18;4.32;;;1.63;;
45728;SDS011;31439;53.512;10.206;2023-03-23T15:03:52;5.25;;;1.60;;
45728;SDS011;31439;53.512;10.206;2023-03-23T15:06:21;5.50;;;1.60;;
45728;SDS011;31439;53.512;10.206;2023-03-23T15:08:52;5.05;;;1.52;;
45728;SDS011;31439;53.512;10.206;2023-03-23T15:11:27;6.30;;;1.50;;
45728;SDS011;31439;53.512;10.206;2023-03-23T15:13:58;5.45;;;1.58;;
45728;SDS011;31439;53.512;10.206;2023-03-23T15:16:31;5.82;;;1.65;;
45728;SDS011;31439;53.512;10.206;2023-03-23T15:19:10;5.85;;;1.50;;
45728;SDS011;31439;53.512;10.206;2023-03-23T15:24:33;7.72;;;1.90;;
45728;SDS011;31439;53.512;10.206;2023-03-23T15:29:45;4.97;;;1.52;;
45728;SDS011;31439;53.512;10.206;2023-03-23T15:32:12;4.15;;;1.50;;
45728;SDS011;31439;53.512;10.206;2023-03-23T15:34:38;3.80;;;1.50;;
45728;SDS011;31439;53.512;10.206;2023-03-23T15:37:18;6.88;;;1.80;;
45728;SDS011;31439;53.512;10.206;2023-03-23T15:39:45;7.25;;;1.85;;
45728;SDS011;31439;53.512;10.206;2023-03-23T15:42:24;4.70;;;1.83;;
45728;SDS011;31439;53.512;10.206;2023-03-23T15:44:56;6.68;;;2.13;;
45728;SDS011;31439;53.512;10.206;2023-03-23T15:47:43;4.97;;;2.08;;
45728;SDS011;31439;53.512;10.206;2023-03-23T15:52:41;5.93;;;1.80;;
45728;SDS011;31439;53.512;10.206;2023-03-23T15:57:50;7.18;;;2.05;;
45728;SDS011;31439;53.512;10.206;2023-03-23T16:00:17;6.10;;;1.65;;
45728;SDS011;31439;53.512;10.206;2023-03-23T16:02:45;4.53;;;1.40;;
45728;SDS011;31439;53.512;10.206;2023-03-23T16:05:14;6.25;;;1.63;;
45728;SDS011;31439;53.512;10.206;2023-03-23T16:07:41;5.55;;;1.40;;
45728;SDS011;31439;53.512;10.206;2023-03-23T16:10:10;4.13;;;1.40;;
45728;SDS011;31439;53.512;10.206;2023-03-23T16:12:43;5.32;;;1.60;;
45728;SDS011;31439;53.512;10.206;2023-03-23T16:15:10;5.40;;;1.40;;
45728;SDS011;31439;53.512;10.206;2023-03-23T16:17:36;8.75;;;1.30;;
45728;SDS011;31439;53.512;10.206;2023-03-23T16:20:08;5.35;;;1.50;;
45728;SDS011;31439;53.512;10.206;2023-03-23T16:22:40;3.20;;;1.30;;
45728;SDS011;31439;53.512;10.206;2023-03-23T16:25:06;4.63;;;1.40;;
45728;SDS011;31439;53.512;10.206;2023-03-23T16:27:32;5.78;;;1.67;;
45728;SDS011;31439;53.512;10.206;2023-03-23T16:29:58;3.58;;;1.35;;
45728;SDS011;31439;53.512;10.206;2023-03-23T16:32:27;5.60;;;1.45;;
45728;SDS011;31439;53.512;10.206;2023-03-23T16:34:52;6.65;;;1.30;;
45728;SDS011;31439;53.512;10.206;2023-03-23T16:37:18;4.43;;;1.40;;
45728;SDS011;31439;53.512;10.206;2023-03-23T16:39:44;6.07;;;1.67;;
45728;SDS011;31439;53.512;10.206;2023-03-23T16:42:10;6.53;;;1.48;;
45728;SDS011;31439;53.512;10.206;2023-03-23T16:44:35;8.05;;;1.83;;
45728;SDS011;31439;53.512;10.206;2023-03-23T16:47:01;6.70;;;1.77;;
45728;SDS011;31439;53.512;10.206;2023-03-23T16:49:27;6.57;;;1.73;;
45728;SDS011;31439;53.512;10.206;2023-03-23T16:51:52;4.78;;;1.50;;
45728;SDS011;31439;53.512;10.206;2023-03-23T16:54:18;5.38;;;1.77;;
45728;SDS011;31439;53.512;10.206;2023-03-23T16:56:43;3.95;;;1.25;;
45728;SDS011;31439;53.512;10.206;2023-03-23T16:59:11;5.03;;;1.30;;
45728;SDS011;31439;53.512;10.206;2023-03-23T17:01:37;6.15;;;1.52;;
45728;SDS011;31439;53.512;10.206;2023-03-23T17:04:03;7.38;;;1.60;;
45728;SDS011;31439;53.512;10.206;2023-03-23T17:06:29;5.05;;;1.60;;
45728;SDS011;31439;53.512;10.206;2023-03-23T17:08:55;6.65;;;1.90;;
45728;SDS011;31439;53.512;10.206;2023-03-23T17:11:20;4.95;;;1.55;;
45728;SDS011;31439;53.512;10.206;2023-03-23T17:13:46;5.70;;;1.50;;